sensor_id;sensor_type;location;lat;lon;timestamp;pressure;altitude;pressure_sealevel;temperature;humidity
53715;BME280;39608;55.630;37.864;2024-03-17T00:01:48;99747.72;;;0.03;61.86
53715;BME280;39608;55.630;37.864;2024-03-17T00:06:50;99745.13;;;-0.04;62.24
53715;BME280;39608;55.630;37.864;2024-03-17T00:11:53;99744.75;;;-0.08;62.12
53715;BME280;39608;55.630;37.864;2024-03-17T00:16:56;99744.91;;;-0.03;62.73
53715;BME280;39608;55.630;37.864;2024-03-17T00:21:58;99749.63;;;-0.05;62.12
53715;BME280;39608;55.630;37.864;2024-03-17T00:27:01;99740.59;;;-0.04;62.03
53715;BME280;39608;55.630;37.864;2024-03-17T00:32:04;99731.63;;;-0.09;62.37
53715;BME280;39608;55.630;37.864;2024-03-17T00:37:06;99733.91;;;-0.13;62.58
53715;BME280;39608;55.630;37.864;2024-03-17T00:42:11;99727.56;;;-0.12;62.71
53715;BME280;39608;55.630;37.864;2024-03-17T00:47:14;99724.94;;;-0.19;62.99
53715;BME280;39608;55.630;37.864;2024-03-17T00:52:17;99727.03;;;-0.21;63.08
53715;BME280;39608;55.630;37.864;2024-03-17T00:57:20;99722.50;;;-0.20;62.87
53715;BME280;39608;55.630;37.864;2024-03-17T01:02:23;99722.13;;;-0.24;62.89
53715;BME280;39608;55.630;37.864;2024-03-17T01:07:25;99712.50;;;-0.25;62.66
53715;BME280;39608;55.630;37.864;2024-03-17T01:12:29;99716.19;;;-0.26;62.88
53715;BME280;39608;55.630;37.864;2024-03-17T01:17:31;99716.19;;;-0.26;63.04
53715;BME280;39608;55.630;37.864;2024-03-17T01:22:33;99715.22;;;-0.31;63.36
53715;BME280;39608;55.630;37.864;2024-03-17T01:27:36;99705.81;;;-0.34;63.29
53715;BME280;39608;55.630;37.864;2024-03-17T01:32:38;99711.00;;;-0.39;62.87
53715;BME280;39608;55.630;37.864;2024-03-17T01:37:41;99701.59;;;-0.42;63.51
53715;BME280;39608;55.630;37.864;2024-03-17T01:42:44;99698.09;;;-0.42;62.77
53715;BME280;39608;55.630;37.864;2024-03-17T01:47:47;99696.31;;;-0.48;63.64
53715;BME280;39608;55.630;37.864;2024-03-17T01:52:49;99690.34;;;-0.50;63.08
53715;BME280;39608;55.630;37.864;2024-03-17T01:57:53;99684.44;;;-0.53;63.25
53715;BME280;39608;55.630;37.864;2024-03-17T02:02:55;99687.56;;;-0.56;63.24
53715;BME280;39608;55.630;37.864;2024-03-17T02:07:57;99691.47;;;-0.58;63.78
53715;BME280;39608;55.630;37.864;2024-03-17T02:13:01;99680.00;;;-0.59;63.75
53715;BME280;39608;55.630;37.864;2024-03-17T02:18:04;99678.81;;;-0.63;63.91
53715;BME280;39608;55.630;37.864;2024-03-17T02:23:07;99679.22;;;-0.66;63.57
53715;BME280;39608;55.630;37.864;2024-03-17T02:28:09;99667.97;;;-0.68;63.88
53715;BME280;39608;55.630;37.864;2024-03-17T02:33:11;99668.19;;;-0.70;64.09
53715;BME280;39608;55.630;37.864;2024-03-17T02:38:16;99660.22;;;-0.70;63.89
53715;BME280;39608;55.630;37.864;2024-03-17T02:43:39;99662.03;;;-0.70;63.54
53715;BME280;39608;55.630;37.864;2024-03-17T02:48:42;99658.56;;;-0.71;63.68
53715;BME280;39608;55.630;37.864;2024-03-17T02:53:49;99656.72;;;-0.70;63.93
53715;BME280;39608;55.630;37.864;2024-03-17T02:58:52;99647.13;;;-0.71;63.87
53715;BME280;39608;55.630;37.864;2024-03-17T03:03:54;99635.03;;;-0.74;63.59
53715;BME280;39608;55.630;37.864;2024-03-17T03:08:58;99648.56;;;-0.75;63.95
53715;BME280;39608;55.630;37.864;2024-03-17T03:14:00;99635.09;;;-0.80;64.38
53715;BME280;39608;55.630;37.864;2024-03-17T03:19:02;99634.31;;;-0.88;63.75
53715;BME280;39608;55.630;37.864;2024-03-17T03:24:07;99644.53;;;-0.84;64.29
53715;BME280;39608;55.630;37.864;2024-03-17T03:29:09;99634.31;;;-0.88;64.55
53715;BME280;39608;55.630;37.864;2024-03-17T03:34:12;99628.38;;;-0.90;64.05
53715;BME280;39608;55.630;37.864;2024-03-17T03:39:15;99623.50;;;-0.93;64.62
53715;BME280;39608;55.630;37.864;2024-03-17T03:44:17;99621.69;;;-0.92;64.29
53715;BME280;39608;55.630;37.864;2024-03-17T03:49:19;99625.59;;;-0.95;64.04
53715;BME280;39608;55.630;37.864;2024-03-17T03:54:24;99623.50;;;-0.93;64.30
53715;BME280;39608;55.630;37.864;2024-03-17T03:59:26;99618.56;;;-0.89;64.08
53715;BME280;39608;55.630;37.864;2024-03-17T04:04:28;99621.81;;;-0.87;64.46
53715;BME280;39608;55.630;37.864;2024-03-17T04:09:31;99612.53;;;-0.78;64.21
53715;BME280;39608;55.630;37.864;2024-03-17T04:14:33;99611.44;;;-0.70;63.55
53715;BME280;39608;55.630;37.864;2024-03-17T04:19:35;99616.13;;;-0.65;63.60
53715;BME280;39608;55.630;37.864;2024-03-17T04:24:39;99620.97;;;-0.56;63.86
53715;BME280;39608;55.630;37.864;2024-03-17T04:29:41;99604.97;;;-0.56;63.53
53715;BME280;39608;55.630;37.864;2024-03-17T04:34:43;99611.84;;;-0.48;63.25
53715;BME280;39608;55.630;37.864;2024-03-17T04:39:47;99621.03;;;-0.44;63.53
53715;BME280;39608;55.630;37.864;2024-03-17T04:44:49;99621.78;;;-0.37;63.46
53715;BME280;39608;55.630;37.864;2024-03-17T04:49:52;99621.56;;;-0.35;63.31
53715;BME280;39608;55.630;37.864;2024-03-17T04:54:57;99610.03;;;-0.29;63.42
53715;BME280;39608;55.630;37.864;2024-03-17T04:59:59;99613.22;;;-0.20;63.05
53715;BME280;39608;55.630;37.864;2024-03-17T05:05:01;99619.28;;;-0.13;62.49
53715;BME280;39608;55.630;37.864;2024-03-17T05:10:08;99622.91;;;-0.07;62.45
53715;BME280;39608;55.630;37.864;2024-03-17T05:15:10;99622.63;;;0.01;62.20
53715;BME280;39608;55.630;37.864;2024-03-17T05:20:12;99621.66;;;0.14;62.18
53715;BME280;39608;55.630;37.864;2024-03-17T05:25:16;99616.47;;;0.19;61.99
53715;BME280;39608;55.630;37.864;2024-03-17T05:30:19;99623.38;;;0.27;61.77
53715;BME280;39608;55.630;37.864;2024-03-17T05:35:21;99621.69;;;0.44;61.47
53715;BME280;39608;55.630;37.864;2024-03-17T05:40:24;99618.25;;;0.56;60.94
53715;BME280;39608;55.630;37.864;2024-03-17T05:45:26;99630.25;;;0.65;60.84
53715;BME280;39608;55.630;37.864;2024-03-17T05:50:29;99626.50;;;1.39;59.88
53715;BME280;39608;55.630;37.864;2024-03-17T05:55:34;99627.69;;;3.22;56.12
53715;BME280;39608;55.630;37.864;2024-03-17T06:00:37;99614.84;;;4.20;53.47
53715;BME280;39608;55.630;37.864;2024-03-17T06:05:40;99622.94;;;3.64;53.39
53715;BME280;39608;55.630;37.864;2024-03-17T06:10:45;99621.03;;;3.42;54.13
53715;BME280;39608;55.630;37.864;2024-03-17T06:15:48;99609.22;;;3.60;52.59
53715;BME280;39608;55.630;37.864;2024-03-17T06:20:50;99611.03;;;3.37;53.08
53715;BME280;39608;55.630;37.864;2024-03-17T06:25:56;99609.06;;;3.67;52.81
53715;BME280;39608;55.630;37.864;2024-03-17T06:30:58;99606.50;;;3.77;52.73
53715;BME280;39608;55.630;37.864;2024-03-17T06:36:02;99604.91;;;3.98;52.30
53715;BME280;39608;55.630;37.864;2024-03-17T06:41:06;99602.84;;;4.27;51.25
53715;BME280;39608;55.630;37.864;2024-03-17T06:46:08;99606.81;;;4.47;50.90
53715;BME280;39608;55.630;37.864;2024-03-17T06:51:10;99604.22;;;4.52;50.88
53715;BME280;39608;55.630;37.864;2024-03-17T06:56:13;99600.91;;;4.45;50.69
53715;BME280;39608;55.630;37.864;2024-03-17T07:01:15;99601.28;;;4.32;51.44
53715;BME280;39608;55.630;37.864;2024-03-17T07:06:17;99600.78;;;4.35;51.65
53715;BME280;39608;55.630;37.864;2024-03-17T07:11:21;99591.47;;;4.42;51.26
53715;BME280;39608;55.630;37.864;2024-03-17T07:16:25;99591.56;;;4.53;51.56
53715;BME280;39608;55.630;37.864;2024-03-17T07:21:27;99584.53;;;4.74;51.10
53715;BME280;39608;55.630;37.864;2024-03-17T07:26:30;99584.13;;;4.87;51.07
53715;BME280;39608;55.630;37.864;2024-03-17T07:31:32;99588.69;;;5.19;51.02
53715;BME280;39608;55.630;37.864;2024-03-17T07:36:34;99589.84;;;6.24;49.06
53715;BME280;39608;55.630;37.864;2024-03-17T07:41:38;99583.25;;;7.09;47.47
53715;BME280;39608;55.630;37.864;2024-03-17T07:46:40;99591.25;;;7.86;45.81
53715;BME280;39608;55.630;37.864;2024-03-17T07:51:42;99572.00;;;8.59;45.09
53715;BME280;39608;55.630;37.864;2024-03-17T07:56:46;99572.81;;;9.33;43.24
53715;BME280;39608;55.630;37.864;2024-03-17T08:01:48;99570.88;;;9.87;42.57
53715;BME280;39608;55.630;37.864;2024-03-17T08:06:50;99566.66;;;10.00;41.84
53715;BME280;39608;55.630;37.864;2024-03-17T08:11:54;99570.44;;;10.23;41.46
53715;BME280;39608;55.630;37.864;2024-03-17T08:16:56;99566.56;;;10.54;40.51
53715;BME280;39608;55.630;37.864;2024-03-17T08:21:59;99564.84;;;10.39;40.16
53715;BME280;39608;55.630;37.864;2024-03-17T08:27:03;99557.41;;;10.50;40.36
53715;BME280;39608;55.630;37.864;2024-03-17T08:32:05;99561.16;;;10.87;39.54
53715;BME280;39608;55.630;37.864;2024-03-17T08:37:08;99552.00;;;10.83;39.55
53715;BME280;39608;55.630;37.864;2024-03-17T08:42:12;99556.41;;;10.98;39.02
53715;BME280;39608;55.630;37.864;2024-03-17T08:47:14;99551.91;;;10.31;39.06
53715;BME280;39608;55.630;37.864;2024-03-17T08:52:16;99539.22;;;10.07;39.55
53715;BME280;39608;55.630;37.864;2024-03-17T08:57:20;99547.50;;;11.11;38.40
53715;BME280;39608;55.630;37.864;2024-03-17T09:02:22;99537.91;;;11.46;36.99
53715;BME280;39608;55.630;37.864;2024-03-17T09:07:24;99538.06;;;11.22;37.04
53715;BME280;39608;55.630;37.864;2024-03-17T09:12:27;99529.03;;;12.38;36.10
53715;BME280;39608;55.630;37.864;2024-03-17T09:17:29;99531.34;;;14.86;31.91
53715;BME280;39608;55.630;37.864;2024-03-17T09:22:31;99531.09;;;17.09;29.52
53715;BME280;39608;55.630;37.864;2024-03-17T09:27:35;99532.34;;;17.70;27.93
53715;BME280;39608;55.630;37.864;2024-03-17T09:32:38;99527.06;;;18.39;26.55
53715;BME280;39608;55.630;37.864;2024-03-17T09:37:41;99532.50;;;18.92;25.70
53715;BME280;39608;55.630;37.864;2024-03-17T09:42:45;99537.38;;;20.07;24.55
53715;BME280;39608;55.630;37.864;2024-03-17T09:47:47;99538.97;;;20.08;23.91
53715;BME280;39608;55.630;37.864;2024-03-17T09:52:49;99525.84;;;20.01;24.28
53715;BME280;39608;55.630;37.864;2024-03-17T09:57:53;99530.41;;;20.13;24.40
53715;BME280;39608;55.630;37.864;2024-03-17T10:02:55;99523.22;;;20.63;23.34
53715;BME280;39608;55.630;37.864;2024-03-17T10:07:58;99526.50;;;22.04;22.68
53715;BME280;39608;55.630;37.864;2024-03-17T10:13:01;99528.22;;;21.40;22.49
53715;BME280;39608;55.630;37.864;2024-03-17T10:18:20;99522.09;;;19.77;25.53
53715;BME280;39608;55.630;37.864;2024-03-17T10:23:23;99511.22;;;16.79;27.67
53715;BME280;39608;55.630;37.864;2024-03-17T10:28:26;99504.16;;;15.07;29.84
53715;BME280;39608;55.630;37.864;2024-03-17T10:33:28;99489.75;;;14.54;30.60
53715;BME280;39608;55.630;37.864;2024-03-17T10:38:30;99494.69;;;14.17;31.50
53715;BME280;39608;55.630;37.864;2024-03-17T10:43:34;99494.53;;;14.22;31.34
53715;BME280;39608;55.630;37.864;2024-03-17T10:48:38;99496.41;;;12.83;33.24
53715;BME280;39608;55.630;37.864;2024-03-17T10:53:43;99487.88;;;12.17;34.43
53715;BME280;39608;55.630;37.864;2024-03-17T10:58:51;99489.50;;;11.90;35.19
53715;BME280;39608;55.630;37.864;2024-03-17T11:03:58;99496.25;;;11.37;35.33
53715;BME280;39608;55.630;37.864;2024-03-17T11:09:03;99493.44;;;11.42;35.37
53715;BME280;39608;55.630;37.864;2024-03-17T11:14:19;99492.13;;;11.26;35.46
53715;BME280;39608;55.630;37.864;2024-03-17T11:19:22;99488.28;;;12.92;33.75
53715;BME280;39608;55.630;37.864;2024-03-17T11:24:27;99495.28;;;13.88;32.14
53715;BME280;39608;55.630;37.864;2024-03-17T11:29:30;99481.44;;;12.72;33.72
53715;BME280;39608;55.630;37.864;2024-03-17T11:34:35;99484.78;;;11.68;35.37
53715;BME280;39608;55.630;37.864;2024-03-17T11:39:50;99490.97;;;10.99;36.03
53715;BME280;39608;55.630;37.864;2024-03-17T11:45:05;99470.97;;;10.62;36.93
53715;BME280;39608;55.630;37.864;2024-03-17T11:50:12;99473.84;;;10.85;36.96
53715;BME280;39608;55.630;37.864;2024-03-17T11:55:18;99472.22;;;11.17;36.54
53715;BME280;39608;55.630;37.864;2024-03-17T12:00:22;99465.25;;;11.10;36.44
53715;BME280;39608;55.630;37.864;2024-03-17T12:05:25;99466.88;;;10.78;36.71
53715;BME280;39608;55.630;37.864;2024-03-17T12:10:28;99464.97;;;10.65;37.37
53715;BME280;39608;55.630;37.864;2024-03-17T12:15:31;99458.63;;;10.37;37.94
53715;BME280;39608;55.630;37.864;2024-03-17T12:20:33;99453.97;;;10.18;37.98
53715;BME280;39608;55.630;37.864;2024-03-17T12:25:36;99458.03;;;10.02;38.27
53715;BME280;39608;55.630;37.864;2024-03-17T12:30:41;99460.94;;;9.86;38.99
53715;BME280;39608;55.630;37.864;2024-03-17T12:35:43;99447.72;;;9.36;39.55
53715;BME280;39608;55.630;37.864;2024-03-17T12:40:46;99458.59;;;9.07;40.19
53715;BME280;39608;55.630;37.864;2024-03-17T12:45:49;99458.03;;;8.81;40.85
53715;BME280;39608;55.630;37.864;2024-03-17T12:50:51;99445.03;;;8.53;41.50
53715;BME280;39608;55.630;37.864;2024-03-17T12:55:53;99458.25;;;8.55;41.87
53715;BME280;39608;55.630;37.864;2024-03-17T13:01:14;99455.94;;;8.33;42.15
53715;BME280;39608;55.630;37.864;2024-03-17T13:06:23;99453.63;;;8.16;42.78
53715;BME280;39608;55.630;37.864;2024-03-17T13:11:25;99448.00;;;8.07;43.37
53715;BME280;39608;55.630;37.864;2024-03-17T13:44:16;99428.00;;;6.46;49.33
53715;BME280;39608;55.630;37.864;2024-03-17T13:49:18;99442.56;;;6.61;49.65
53715;BME280;39608;55.630;37.864;2024-03-17T13:54:20;99434.19;;;6.57;49.99
53715;BME280;39608;55.630;37.864;2024-03-17T13:59:24;99421.78;;;6.66;49.65
53715;BME280;39608;55.630;37.864;2024-03-17T14:04:26;99430.94;;;6.65;49.52
53715;BME280;39608;55.630;37.864;2024-03-17T14:09:30;99419.66;;;6.63;49.90
53715;BME280;39608;55.630;37.864;2024-03-17T14:14:34;99425.56;;;6.60;49.67
53715;BME280;39608;55.630;37.864;2024-03-17T14:19:36;99427.47;;;6.44;50.09
53715;BME280;39608;55.630;37.864;2024-03-17T14:24:38;99422.34;;;6.38;50.57
53715;BME280;39608;55.630;37.864;2024-03-17T14:29:43;99414.00;;;6.29;50.67
53715;BME280;39608;55.630;37.864;2024-03-17T14:34:46;99417.50;;;6.40;50.46
53715;BME280;39608;55.630;37.864;2024-03-17T14:39:48;99420.44;;;6.43;50.46
53715;BME280;39608;55.630;37.864;2024-03-17T14:44:52;99417.75;;;6.59;50.62
53715;BME280;39608;55.630;37.864;2024-03-17T14:49:54;99420.44;;;6.59;49.72
53715;BME280;39608;55.630;37.864;2024-03-17T14:54:56;99412.38;;;6.38;49.87
53715;BME280;39608;55.630;37.864;2024-03-17T15:00:00;99417.19;;;6.15;50.06
53715;BME280;39608;55.630;37.864;2024-03-17T15:05:02;99417.69;;;5.97;50.11
53715;BME280;39608;55.630;37.864;2024-03-17T15:10:05;99404.25;;;5.92;50.32
53715;BME280;39608;55.630;37.864;2024-03-17T15:15:09;99412.28;;;5.81;50.05
53715;BME280;39608;55.630;37.864;2024-03-17T15:20:11;99422.19;;;5.71;50.79
53715;BME280;39608;55.630;37.864;2024-03-17T15:25:18;99420.06;;;5.73;50.64
53715;BME280;39608;55.630;37.864;2024-03-17T15:30:24;99414.94;;;5.71;50.48
53715;BME280;39608;55.630;37.864;2024-03-17T15:35:30;99414.91;;;5.66;50.71
53715;BME280;39608;55.630;37.864;2024-03-17T15:40:32;99417.09;;;5.64;50.82
53715;BME280;39608;55.630;37.864;2024-03-17T15:45:37;99410.34;;;5.66;50.92
53715;BME280;39608;55.630;37.864;2024-03-17T15:50:39;99404.97;;;5.72;50.88
53715;BME280;39608;55.630;37.864;2024-03-17T15:55:43;99400.13;;;5.58;50.99
53715;BME280;39608;55.630;37.864;2024-03-17T16:00:47;99416.00;;;5.65;51.07
53715;BME280;39608;55.630;37.864;2024-03-17T16:05:50;99418.66;;;5.55;50.95
53715;BME280;39608;55.630;37.864;2024-03-17T16:10:57;99421.59;;;5.48;51.82
53715;BME280;39608;55.630;37.864;2024-03-17T16:16:00;99425.88;;;5.39;51.72
53715;BME280;39608;55.630;37.864;2024-03-17T16:21:06;99416.97;;;5.38;51.80
53715;BME280;39608;55.630;37.864;2024-03-17T16:26:10;99425.91;;;5.49;51.63
53715;BME280;39608;55.630;37.864;2024-03-17T16:31:14;99423.22;;;5.59;51.35
53715;BME280;39608;55.630;37.864;2024-03-17T16:36:16;99417.84;;;5.54;50.87
53715;BME280;39608;55.630;37.864;2024-03-17T16:41:18;99418.94;;;5.58;51.44
53715;BME280;39608;55.630;37.864;2024-03-17T16:46:46;99421.63;;;5.58;51.60
53715;BME280;39608;55.630;37.864;2024-03-17T16:51:54;99413.25;;;5.49;51.19
53715;BME280;39608;55.630;37.864;2024-03-17T16:56:56;99424.28;;;5.48;51.09
53715;BME280;39608;55.630;37.864;2024-03-17T17:02:00;99420.56;;;5.54;51.58
53715;BME280;39608;55.630;37.864;2024-03-17T17:07:02;99419.97;;;5.47;51.32
53715;BME280;39608;55.630;37.864;2024-03-17T17:12:05;99414.03;;;5.40;51.31
53715;BME280;39608;55.630;37.864;2024-03-17T17:17:09;99426.09;;;5.37;51.50
53715;BME280;39608;55.630;37.864;2024-03-17T17:22:13;99409.69;;;5.34;52.01
53715;BME280;39608;55.630;37.864;2024-03-17T17:27:16;99414.28;;;5.33;51.77
53715;BME280;39608;55.630;37.864;2024-03-17T17:32:20;99412.38;;;5.34;51.84
53715;BME280;39608;55.630;37.864;2024-03-17T17:37:22;99425.84;;;5.34;51.86
53715;BME280;39608;55.630;37.864;2024-03-17T17:42:24;99414.50;;;5.26;52.24
53715;BME280;39608;55.630;37.864;2024-03-17T17:47:28;99419.38;;;5.29;51.42
53715;BME280;39608;55.630;37.864;2024-03-17T17:52:30;99410.75;;;5.27;51.69
53715;BME280;39608;55.630;37.864;2024-03-17T17:57:32;99412.59;;;5.22;51.63
53715;BME280;39608;55.630;37.864;2024-03-17T18:02:36;99423.03;;;5.13;52.36
53715;BME280;39608;55.630;37.864;2024-03-17T18:07:39;99428.34;;;4.97;52.68
53715;BME280;39608;55.630;37.864;2024-03-17T18:12:44;99418.06;;;4.89;52.88
53715;BME280;39608;55.630;37.864;2024-03-17T18:17:47;99416.44;;;4.83;52.34
53715;BME280;39608;55.630;37.864;2024-03-17T18:22:49;99421.72;;;4.73;53.51
53715;BME280;39608;55.630;37.864;2024-03-17T18:27:51;99417.94;;;4.69;53.65
53715;BME280;39608;55.630;37.864;2024-03-17T18:32:55;99414.66;;;4.61;54.14
53715;BME280;39608;55.630;37.864;2024-03-17T18:37:58;99410.59;;;4.54;54.59
53715;BME280;39608;55.630;37.864;2024-03-17T18:43:00;99418.59;;;4.49;54.37
53715;BME280;39608;55.630;37.864;2024-03-17T18:48:04;99416.47;;;4.51;54.73
53715;BME280;39608;55.630;37.864;2024-03-17T18:53:06;99425.81;;;4.43;55.22
53715;BME280;39608;55.630;37.864;2024-03-17T18:58:09;99416.63;;;4.39;55.19
53715;BME280;39608;55.630;37.864;2024-03-17T19:03:13;99421.47;;;4.37;55.28
53715;BME280;39608;55.630;37.864;2024-03-17T19:08:15;99421.72;;;4.35;55.74
53715;BME280;39608;55.630;37.864;2024-03-17T19:13:17;99416.03;;;4.32;55.57
53715;BME280;39608;55.630;37.864;2024-03-17T19:18:20;99420.81;;;4.24;56.04
53715;BME280;39608;55.630;37.864;2024-03-17T19:23:22;99424.03;;;4.21;56.25
53715;BME280;39608;55.630;37.864;2024-03-17T19:28:24;99421.28;;;4.16;56.73
53715;BME280;39608;55.630;37.864;2024-03-17T19:33:28;99414.81;;;4.12;56.40
53715;BME280;39608;55.630;37.864;2024-03-17T19:38:31;99412.63;;;4.09;56.84
53715;BME280;39608;55.630;37.864;2024-03-17T19:43:34;99408.84;;;4.05;56.98
53715;BME280;39608;55.630;37.864;2024-03-17T19:48:38;99405.59;;;4.03;56.87
53715;BME280;39608;55.630;37.864;2024-03-17T19:53:41;99394.81;;;3.98;57.65
53715;BME280;39608;55.630;37.864;2024-03-17T19:58:44;99403.94;;;3.97;57.86
53715;BME280;39608;55.630;37.864;2024-03-17T20:03:48;99407.72;;;4.01;57.78
53715;BME280;39608;55.630;37.864;2024-03-17T20:08:51;99409.28;;;3.97;57.62
53715;BME280;39608;55.630;37.864;2024-03-17T20:13:54;99410.09;;;3.97;57.39
53715;BME280;39608;55.630;37.864;2024-03-17T20:18:57;99419.22;;;3.96;57.75
53715;BME280;39608;55.630;37.864;2024-03-17T20:23:59;99407.13;;;3.93;58.12
53715;BME280;39608;55.630;37.864;2024-03-17T20:29:01;99413.53;;;3.92;58.07
53715;BME280;39608;55.630;37.864;2024-03-17T20:34:05;99410.06;;;3.92;57.92
53715;BME280;39608;55.630;37.864;2024-03-17T20:39:07;99406.47;;;3.81;58.52
53715;BME280;39608;55.630;37.864;2024-03-17T20:44:11;99402.22;;;3.85;58.35
53715;BME280;39608;55.630;37.864;2024-03-17T20:49:15;99404.81;;;3.80;58.40
53715;BME280;39608;55.630;37.864;2024-03-17T20:54:17;99402.59;;;3.72;59.03
53715;BME280;39608;55.630;37.864;2024-03-17T20:59:19;99418.94;;;3.70;59.33
53715;BME280;39608;55.630;37.864;2024-03-17T21:04:23;99411.41;;;3.67;59.30
53715;BME280;39608;55.630;37.864;2024-03-17T21:09:25;99412.47;;;3.66;59.64
53715;BME280;39608;55.630;37.864;2024-03-17T21:14:27;99408.72;;;3.67;59.20
53715;BME280;39608;55.630;37.864;2024-03-17T21:19:30;99408.97;;;3.66;60.10
53715;BME280;39608;55.630;37.864;2024-03-17T21:24:33;99410.28;;;3.63;59.62
53715;BME280;39608;55.630;37.864;2024-03-17T21:29:36;99403.88;;;3.64;60.02
53715;BME280;39608;55.630;37.864;2024-03-17T21:34:40;99407.28;;;3.59;59.49
53715;BME280;39608;55.630;37.864;2024-03-17T21:39:41;99417.97;;;3.54;60.46
53715;BME280;39608;55.630;37.864;2024-03-17T21:44:43;99408.31;;;3.53;60.27
53715;BME280;39608;55.630;37.864;2024-03-17T21:49:47;99402.69;;;3.55;60.60
53715;BME280;39608;55.630;37.864;2024-03-17T21:54:51;99401.56;;;3.51;60.80
53715;BME280;39608;55.630;37.864;2024-03-17T21:59:53;99404.75;;;3.48;60.30
53715;BME280;39608;55.630;37.864;2024-03-17T22:04:56;99402.88;;;3.48;60.84
53715;BME280;39608;55.630;37.864;2024-03-17T22:09:58;99402.56;;;3.45;61.23
53715;BME280;39608;55.630;37.864;2024-03-17T22:15:00;99396.16;;;3.46;60.93
53715;BME280;39608;55.630;37.864;2024-03-17T22:20:07;99396.97;;;3.46;61.37
53715;BME280;39608;55.630;37.864;2024-03-17T22:25:11;99398.00;;;3.45;61.59
53715;BME280;39608;55.630;37.864;2024-03-17T22:30:13;99403.69;;;3.49;61.28
53715;BME280;39608;55.630;37.864;2024-03-17T22:35:16;99399.72;;;3.51;61.21
53715;BME280;39608;55.630;37.864;2024-03-17T22:40:19;99408.81;;;3.50;61.51
53715;BME280;39608;55.630;37.864;2024-03-17T22:45:21;99404.50;;;3.49;61.61
53715;BME280;39608;55.630;37.864;2024-03-17T22:50:24;99407.75;;;3.51;61.52
53715;BME280;39608;55.630;37.864;2024-03-17T22:55:26;99403.69;;;3.49;61.38
53715;BME280;39608;55.630;37.864;2024-03-17T23:00:28;99406.13;;;3.50;61.41
53715;BME280;39608;55.630;37.864;2024-03-17T23:05:43;99405.28;;;3.50;61.36
53715;BME280;39608;55.630;37.864;2024-03-17T23:10:45;99411.41;;;3.45;61.75
53715;BME280;39608;55.630;37.864;2024-03-17T23:15:49;99407.44;;;3.48;61.39
53715;BME280;39608;55.630;37.864;2024-03-17T23:20:54;99410.38;;;3.46;61.62
53715;BME280;39608;55.630;37.864;2024-03-17T23:25:56;99417.53;;;3.40;61.68
53715;BME280;39608;55.630;37.864;2024-03-17T23:30:58;99407.88;;;3.39;61.81
53715;BME280;39608;55.630;37.864;2024-03-17T23:36:02;99407.50;;;3.53;61.54
53715;BME280;39608;55.630;37.864;2024-03-17T23:41:04;99408.31;;;3.53;61.63
53715;BME280;39608;55.630;37.864;2024-03-17T23:46:06;99409.97;;;3.59;61.42
53715;BME280;39608;55.630;37.864;2024-03-17T23:51:12;99408.19;;;3.65;61.72
53715;BME280;39608;55.630;37.864;2024-03-17T23:56:14;99405.78;;;3.69;61.57
